createdAt,value
2018-06-09T00:00:56.398Z,99134.13
2018-06-09T00:03:25.051Z,99130.08
2018-06-09T00:06:00.346Z,99140.56
2018-06-09T00:08:29.016Z,99135.40
2018-06-09T00:10:57.647Z,99131.04
2018-06-09T00:13:26.311Z,99137.45
2018-06-09T00:15:54.974Z,99128.20
2018-06-09T00:18:23.583Z,99127.70
2018-06-09T00:20:52.266Z,99125.86
2018-06-09T00:23:20.928Z,99124.91
2018-06-09T00:25:49.565Z,99129.19
2018-06-09T00:28:18.305Z,99127.16
2018-06-09T00:30:46.979Z,99124.55
2018-06-09T00:33:15.682Z,99123.64
2018-06-09T00:35:44.289Z,99112.52
2018-06-09T00:38:12.996Z,99126.05
2018-06-09T00:40:41.735Z,99122.52
2018-06-09T00:43:10.384Z,99113.64
2018-06-09T00:45:38.988Z,99110.30
2018-06-09T00:48:07.632Z,99106.66
2018-06-09T00:50:36.303Z,99089.04
2018-06-09T00:53:05.028Z,99074.59
2018-06-09T00:55:33.632Z,99078.12
2018-06-09T00:58:02.272Z,99072.91
2018-06-09T01:00:30.960Z,99061.87
2018-06-09T01:02:59.618Z,99044.62
2018-06-09T01:05:28.235Z,99035.72
2018-06-09T01:07:56.869Z,99022.62
2018-06-09T01:10:25.476Z,99013.62
2018-06-09T01:12:54.129Z,99005.48
2018-06-09T01:15:22.839Z,98987.60
2018-06-09T01:17:51.537Z,98971.66
2018-06-09T01:20:20.290Z,98958.69
2018-06-09T01:22:48.950Z,98941.42
2018-06-09T01:25:17.549Z,98937.37
2018-06-09T01:27:46.195Z,98916.88
2018-06-09T01:30:14.897Z,98902.23
2018-06-09T01:32:43.546Z,98896.13
2018-06-09T01:35:12.232Z,98884.08
2018-06-09T01:37:40.839Z,98869.77
2018-06-09T01:40:09.491Z,98858.84
2018-06-09T01:42:38.133Z,98843.08
2018-06-09T01:45:06.716Z,98833.00
2018-06-09T01:47:35.335Z,98819.48
2018-06-09T01:50:04.097Z,98813.62
2018-06-09T01:52:32.768Z,98803.38
2018-06-09T01:55:01.449Z,98806.39
2018-06-09T01:57:30.171Z,98803.59
2018-06-09T01:59:58.804Z,98807.23
2018-06-09T02:02:28.046Z,98808.94
2018-06-09T02:04:56.800Z,98813.03
2018-06-09T02:07:25.437Z,98826.25
2018-06-09T02:09:54.022Z,98832.47
2018-06-09T02:12:22.658Z,98837.44
2018-06-09T02:14:51.263Z,98851.33
2018-06-09T02:17:19.878Z,98854.80
2018-06-09T02:19:48.481Z,98859.98
2018-06-09T02:22:17.081Z,98862.47
2018-06-09T02:24:45.705Z,98863.50
2018-06-09T02:27:14.341Z,98855.60
2018-06-09T02:29:42.962Z,98854.61
2018-06-09T02:32:11.634Z,98846.52
2018-06-09T02:34:40.332Z,98838.28
2018-06-09T02:37:08.986Z,98837.63
2018-06-09T02:39:37.623Z,98822.06
2018-06-09T02:42:06.273Z,98827.66
2018-06-09T02:44:34.909Z,98836.28
2018-06-09T02:47:03.747Z,98841.39
2018-06-09T02:49:32.397Z,98857.41
2018-06-09T02:52:01.063Z,98872.15
2018-06-09T02:54:29.651Z,98900.59
2018-06-09T02:56:58.323Z,98913.81
2018-06-09T02:59:26.976Z,98927.98
2018-06-09T03:01:55.608Z,98931.20
2018-06-09T03:04:24.269Z,98941.05
2018-06-09T03:06:52.891Z,98940.10
2018-06-09T03:09:21.519Z,98942.63
2018-06-09T03:11:50.176Z,98959.13
2018-06-09T03:14:18.859Z,98990.97
2018-06-09T03:16:47.557Z,99027.41
2018-06-09T03:19:16.214Z,99047.98
2018-06-09T03:21:44.806Z,99028.81
2018-06-09T03:24:13.426Z,99046.46
2018-06-09T03:26:42.088Z,99075.48
2018-06-09T03:29:10.771Z,99060.62
2018-06-09T03:31:39.394Z,99067.55
2018-06-09T03:34:08.043Z,99056.15
2018-06-09T03:36:36.714Z,99054.13
2018-06-09T03:39:07.533Z,99056.44
2018-06-09T03:41:36.405Z,99060.78
2018-06-09T03:44:05.018Z,99072.83
2018-06-09T03:46:33.648Z,99070.62
2018-06-09T03:49:02.272Z,99084.39
2018-06-09T03:51:30.934Z,99080.89
2018-06-09T03:53:59.551Z,99092.67
2018-06-09T03:56:28.157Z,99098.23
2018-06-09T03:58:56.794Z,99091.88
2018-06-09T04:01:25.520Z,99090.59
2018-06-09T04:03:54.114Z,99093.35
2018-06-09T04:06:22.722Z,99095.48
2018-06-09T04:08:51.370Z,99087.64
2018-06-09T04:11:19.959Z,99084.03
2018-06-09T04:13:48.574Z,99085.44
2018-06-09T04:16:17.224Z,99101.00
2018-06-09T04:18:45.862Z,99120.45
2018-06-09T04:21:14.485Z,99125.92
2018-06-09T04:23:43.093Z,99113.80
2018-06-09T04:26:12.623Z,99120.95
2018-06-09T04:28:41.236Z,99126.82
2018-06-09T04:31:09.820Z,99120.55
2018-06-09T04:33:38.426Z,99107.40
2018-06-09T04:36:07.079Z,99105.75
2018-06-09T04:38:35.711Z,99105.30
2018-06-09T04:41:04.387Z,99089.09
2018-06-09T04:43:32.995Z,99081.24
2018-06-09T04:46:01.712Z,99092.94
2018-06-09T04:48:30.328Z,99081.73
2018-06-09T04:50:58.959Z,99079.13
2018-06-09T04:53:27.659Z,99086.08
2018-06-09T04:55:56.290Z,99095.64
2018-06-09T04:58:24.954Z,99111.59
2018-06-09T05:00:53.559Z,99096.56
2018-06-09T05:03:22.182Z,99089.33
2018-06-09T05:05:50.804Z,99090.98
2018-06-09T05:08:19.410Z,99095.80
2018-06-09T05:10:48.082Z,99092.38
2018-06-09T05:13:16.679Z,99082.71
2018-06-09T05:15:45.298Z,99086.23
2018-06-09T05:18:14.066Z,99110.23
2018-06-09T05:20:42.673Z,99109.97
2018-06-09T05:23:11.290Z,99095.09
2018-06-09T05:25:39.954Z,99116.05
2018-06-09T05:28:08.724Z,99122.95
2018-06-09T05:30:37.314Z,99114.58
2018-06-09T05:33:05.983Z,99110.27
2018-06-09T05:35:34.587Z,99130.84
2018-06-09T05:38:03.202Z,99141.33
2018-06-09T05:40:31.855Z,99130.02
2018-06-09T05:43:00.500Z,99143.92
2018-06-09T05:45:29.121Z,99142.83
2018-06-09T05:47:57.790Z,99154.60
2018-06-09T05:50:26.439Z,99151.78
2018-06-09T05:52:55.044Z,99148.80
2018-06-09T05:55:23.660Z,99149.52
2018-06-09T05:57:52.313Z,99151.83
2018-06-09T06:00:20.959Z,99160.45
2018-06-09T06:02:49.647Z,99159.56
2018-06-09T06:05:18.299Z,99156.35
2018-06-09T06:07:46.950Z,99166.14
2018-06-09T06:10:15.585Z,99166.05
2018-06-09T06:12:44.314Z,99164.03
2018-06-09T06:15:13.019Z,99168.91
2018-06-09T06:17:41.771Z,99177.08
2018-06-09T06:20:10.547Z,99172.84
2018-06-09T06:22:39.168Z,99163.88
2018-06-09T06:25:07.822Z,99157.58
2018-06-09T06:27:37.030Z,99157.45
2018-06-09T06:30:05.682Z,99147.55
2018-06-09T06:32:34.326Z,99151.40
2018-06-09T06:35:02.965Z,99150.56
2018-06-09T06:37:31.646Z,99148.37
2018-06-09T06:40:00.291Z,99145.55
2018-06-09T06:42:28.918Z,99149.34
2018-06-09T06:44:58.189Z,99142.08
2018-06-09T06:47:26.856Z,99146.73
2018-06-09T06:49:55.490Z,99143.15
2018-06-09T06:52:24.090Z,99144.12
2018-06-09T06:54:52.751Z,99143.89
2018-06-09T06:57:21.427Z,99149.72
2018-06-09T06:59:50.027Z,99139.27
2018-06-09T07:02:18.623Z,99142.23
2018-06-09T07:04:47.238Z,99139.75
2018-06-09T07:07:15.878Z,99138.58
2018-06-09T07:09:44.510Z,99135.27
2018-06-09T07:12:13.173Z,99127.20
2018-06-09T07:14:42.543Z,99126.11
2018-06-09T07:17:12.290Z,99130.88
2018-06-09T07:19:40.941Z,99133.12
2018-06-09T07:22:09.605Z,99135.58
2018-06-09T07:24:38.251Z,99133.41
2018-06-09T07:27:06.871Z,99121.52
2018-06-09T07:29:35.531Z,99119.69
2018-06-09T07:32:04.214Z,99127.89
2018-06-09T07:34:32.863Z,99125.48
2018-06-09T07:37:01.555Z,99125.45
2018-06-09T07:39:30.211Z,99126.50
2018-06-09T07:41:58.835Z,99126.53
2018-06-09T07:44:27.591Z,99124.84
2018-06-09T07:46:56.469Z,99120.23
2018-06-09T07:49:25.342Z,99121.95
2018-06-09T07:51:54.003Z,99112.62
2018-06-09T07:54:22.679Z,99117.10
2018-06-09T07:56:51.355Z,99119.45
2018-06-09T07:59:20.037Z,99121.28
2018-06-09T08:01:48.748Z,99124.73
2018-06-09T08:04:17.407Z,99118.30
2018-06-09T08:06:46.153Z,99123.98
2018-06-09T08:09:14.823Z,99123.55
2018-06-09T08:11:43.466Z,99134.48
2018-06-09T08:14:12.133Z,99119.38
2018-06-09T08:16:40.798Z,99115.27
2018-06-09T08:19:09.563Z,99116.55
2018-06-09T08:21:38.215Z,99115.20
2018-06-09T08:24:06.981Z,99115.88
2018-06-09T08:26:35.658Z,99112.94
2018-06-09T08:29:04.436Z,99111.63
2018-06-09T08:31:33.074Z,99117.23
2018-06-09T08:34:01.762Z,99119.02
2018-06-09T08:36:30.466Z,99113.89
2018-06-09T08:38:59.132Z,99109.61
2018-06-09T08:41:27.839Z,99118.92
2018-06-09T08:43:56.551Z,99118.05
2018-06-09T08:46:25.240Z,99113.44
2018-06-09T08:48:53.855Z,99111.55
2018-06-09T08:51:22.514Z,99104.39
2018-06-09T08:53:51.144Z,99113.64
2018-06-09T08:56:19.812Z,99120.56
2018-06-09T08:58:48.622Z,99128.08
2018-06-09T09:01:17.315Z,99125.90
2018-06-09T09:03:46.097Z,99121.19
2018-06-09T09:06:15.306Z,99120.06
2018-06-09T09:08:44.002Z,99124.02
2018-06-09T09:11:12.676Z,99128.80
2018-06-09T09:13:41.356Z,99135.21
2018-06-09T09:16:10.016Z,99129.20
2018-06-09T09:18:38.678Z,99135.81
2018-06-09T09:21:07.355Z,99140.12
2018-06-09T09:23:36.014Z,99140.78
2018-06-09T09:26:05.280Z,99146.61
2018-06-09T09:28:33.923Z,99146.05
2018-06-09T09:31:02.540Z,99145.92
2018-06-09T09:33:31.176Z,99150.11
2018-06-09T09:35:59.984Z,99161.76
2018-06-09T09:38:28.661Z,99163.84
2018-06-09T09:40:57.346Z,99161.64
2018-06-09T09:43:26.009Z,99172.76
2018-06-09T09:45:54.663Z,99171.03
2018-06-09T09:48:23.318Z,99179.61
2018-06-09T09:50:52.019Z,99178.65
2018-06-09T09:53:20.684Z,99172.14
2018-06-09T09:55:49.356Z,99163.94
2018-06-09T09:58:18.051Z,99171.89
2018-06-09T10:00:46.788Z,99178.37
2018-06-09T10:03:15.415Z,99187.05
2018-06-09T10:05:44.135Z,99185.41
2018-06-09T10:08:12.787Z,99183.19
2018-06-09T10:10:41.410Z,99187.22
2018-06-09T10:13:10.074Z,99199.64
2018-06-09T10:15:38.809Z,99200.29
2018-06-09T10:18:07.428Z,99200.91
2018-06-09T10:20:36.337Z,99202.77
2018-06-09T10:23:04.996Z,99200.92
2018-06-09T10:25:33.648Z,99201.95
2018-06-09T10:28:02.332Z,99204.39
2018-06-09T10:30:30.990Z,99200.35
2018-06-09T10:33:00.212Z,99198.51
2018-06-09T10:35:28.915Z,99203.84
2018-06-09T10:37:57.559Z,99204.86
2018-06-09T10:40:26.215Z,99210.95
2018-06-09T10:42:54.833Z,99203.12
2018-06-09T10:45:23.540Z,99211.75
2018-06-09T10:47:52.155Z,99210.59
2018-06-09T10:50:20.803Z,99210.06
2018-06-09T10:52:49.422Z,99215.42
2018-06-09T10:55:18.085Z,99215.31
2018-06-09T10:57:46.712Z,99212.28
2018-06-09T11:00:15.375Z,99220.23
2018-06-09T11:02:44.104Z,99212.56
2018-06-09T11:05:12.787Z,99208.62
2018-06-09T11:07:41.441Z,99217.35
2018-06-09T11:10:10.126Z,99217.75
2018-06-09T11:12:38.768Z,99214.21
2018-06-09T11:15:07.459Z,99213.27
2018-06-09T11:17:36.114Z,99220.17
2018-06-09T11:20:04.863Z,99220.25
2018-06-09T11:22:33.626Z,99220.02
2018-06-09T11:25:02.646Z,99228.70
2018-06-09T11:27:31.310Z,99227.28
2018-06-09T11:29:59.916Z,99230.02
2018-06-09T11:32:28.570Z,99226.78
2018-06-09T11:34:57.195Z,99230.73
2018-06-09T11:37:25.807Z,99238.03
2018-06-09T11:39:54.423Z,99236.77
2018-06-09T11:42:23.038Z,99237.20
2018-06-09T11:44:51.622Z,99232.75
2018-06-09T11:47:20.254Z,99231.70
2018-06-09T11:49:48.835Z,99231.17
2018-06-09T11:52:17.530Z,99235.44
2018-06-09T11:54:46.154Z,99232.36
2018-06-09T11:57:14.826Z,99228.70
2018-06-09T11:59:43.450Z,99232.58
2018-06-09T12:02:12.050Z,99232.11
2018-06-09T12:04:41.347Z,99224.45
2018-06-09T12:07:09.964Z,99222.53
2018-06-09T12:09:38.566Z,99223.97
2018-06-09T12:12:07.208Z,99225.05
2018-06-09T12:14:35.850Z,99221.82
2018-06-09T12:17:04.669Z,99221.12
2018-06-09T12:19:33.295Z,99211.02
2018-06-09T12:22:01.970Z,99212.30
2018-06-09T12:24:30.600Z,99203.31
2018-06-09T12:26:59.179Z,99200.95
2018-06-09T12:29:27.837Z,99199.09
2018-06-09T12:31:56.493Z,99195.14
2018-06-09T12:34:25.150Z,99185.65
2018-06-09T12:36:53.849Z,99179.57
2018-06-09T12:39:22.526Z,99174.02
2018-06-09T12:41:51.200Z,99167.33
2018-06-09T12:44:19.891Z,99165.86
2018-06-09T12:46:48.530Z,99158.78
2018-06-09T12:49:17.175Z,99159.47
2018-06-09T12:51:45.803Z,99153.50
2018-06-09T12:54:14.416Z,99142.93
2018-06-09T12:56:43.007Z,99132.77
2018-06-09T12:59:12.299Z,99129.83
2018-06-09T13:01:40.903Z,99122.34
2018-06-09T13:04:09.468Z,99114.27
2018-06-09T13:06:38.182Z,99108.66
2018-06-09T13:09:07.778Z,99108.02
2018-06-09T13:11:36.374Z,99096.92
2018-06-09T13:14:05.027Z,99097.60
2018-06-09T13:16:33.613Z,99092.97
2018-06-09T13:19:02.730Z,99085.70
2018-06-09T13:21:31.309Z,99082.86
2018-06-09T13:23:59.894Z,99077.85
2018-06-09T13:26:28.556Z,99080.34
2018-06-09T13:28:57.254Z,99077.57
2018-06-09T13:31:26.025Z,99074.62
2018-06-09T13:33:54.725Z,99063.41
2018-06-09T13:36:23.510Z,99074.27
2018-06-09T13:38:52.224Z,99061.10
2018-06-09T13:41:20.824Z,99059.61
2018-06-09T13:43:49.432Z,99056.45
2018-06-09T13:46:18.046Z,99053.59
2018-06-09T13:48:47.273Z,99048.83
2018-06-09T13:51:15.923Z,99044.52
2018-06-09T13:53:44.545Z,99036.86
2018-06-09T13:56:13.165Z,99042.70
2018-06-09T13:58:42.077Z,99036.43
2018-06-09T14:01:10.730Z,99036.89
2018-06-09T14:03:39.287Z,99030.92
2018-06-09T14:06:08.584Z,99029.66
2018-06-09T14:08:37.169Z,99021.41
2018-06-09T14:11:06.587Z,99019.58
2018-06-09T14:13:35.204Z,99011.23
2018-06-09T14:16:03.858Z,99011.74
2018-06-09T14:18:32.560Z,99019.98
2018-06-09T14:21:01.852Z,99017.77
2018-06-09T14:23:30.609Z,99007.23
2018-06-09T14:25:59.311Z,99006.70
2018-06-09T14:28:28.052Z,99003.91
2018-06-09T14:30:56.731Z,99008.33
2018-06-09T14:33:25.425Z,98993.06
2018-06-09T14:35:54.161Z,98994.45
2018-06-09T14:38:22.756Z,98992.25
2018-06-09T14:40:51.326Z,98971.84
2018-06-09T14:43:19.949Z,98972.27
2018-06-09T14:45:48.575Z,98969.44
2018-06-09T14:48:17.221Z,98961.62
2018-06-09T14:50:45.881Z,98962.28
2018-06-09T14:53:14.492Z,98953.48
2018-06-09T14:55:43.106Z,98955.59
2018-06-09T14:58:11.757Z,98961.92
2018-06-09T15:00:40.401Z,98963.59
2018-06-09T15:03:09.070Z,98963.16
2018-06-09T15:05:37.751Z,98966.06
2018-06-09T15:08:06.508Z,98968.70
2018-06-09T15:10:35.083Z,98971.73
2018-06-09T15:13:03.879Z,98971.73
2018-06-09T15:15:32.530Z,98958.08
2018-06-09T15:18:01.242Z,98962.28
2018-06-09T15:20:29.943Z,98967.31
2018-06-09T15:22:58.667Z,98973.23
2018-06-09T15:25:27.375Z,98976.69
2018-06-09T15:27:56.070Z,98978.04
2018-06-09T15:30:24.936Z,98971.69
2018-06-09T15:32:53.539Z,98972.78
2018-06-09T15:35:22.218Z,98974.23
2018-06-09T15:37:50.870Z,98977.63
2018-06-09T15:40:19.484Z,98981.88
2018-06-09T15:42:48.141Z,98979.92
2018-06-09T15:45:16.801Z,98982.50
2018-06-09T15:47:45.460Z,98983.92
2018-06-09T15:50:14.198Z,98977.34
2018-06-09T15:52:42.938Z,98985.30
2018-06-09T15:55:11.586Z,98975.23
2018-06-09T15:57:40.225Z,98981.67
2018-06-09T16:00:08.935Z,98980.59
2018-06-09T16:02:37.663Z,98985.39
2018-06-09T16:05:06.299Z,98988.58
2018-06-09T16:07:35.039Z,98989.01
2018-06-09T16:10:03.733Z,99000.30
2018-06-09T16:12:32.682Z,99005.77
2018-06-09T16:15:01.383Z,99002.23
2018-06-09T16:17:30.018Z,98997.43
2018-06-09T16:19:58.679Z,98997.74
2018-06-09T16:22:27.407Z,98996.95
2018-06-09T16:24:56.078Z,99004.83
2018-06-09T16:27:24.743Z,99008.67
2018-06-09T16:29:53.404Z,99010.03
2018-06-09T16:32:22.017Z,99006.95
2018-06-09T16:34:51.391Z,99015.28
2018-06-09T16:37:19.943Z,99016.63
2018-06-09T16:39:50.454Z,99018.26
2018-06-09T16:42:19.071Z,99022.97
2018-06-09T16:44:47.928Z,99019.42
2018-06-09T16:47:18.048Z,99022.00
2018-06-09T16:49:46.743Z,99025.48
2018-06-09T16:52:15.411Z,99017.66
2018-06-09T16:54:44.404Z,99019.23
2018-06-09T16:57:16.026Z,99026.79
2018-06-09T16:59:44.770Z,99029.66
2018-06-09T17:02:13.942Z,99024.72
2018-06-09T17:04:42.598Z,99024.72
2018-06-09T17:10:03.466Z,99022.45
2018-06-09T17:12:32.858Z,99020.61
2018-06-09T17:15:01.480Z,99026.55
2018-06-09T17:17:30.121Z,99023.16
2018-06-09T17:19:58.811Z,99023.95
2018-06-09T17:22:27.528Z,99028.17
2018-06-09T17:24:56.103Z,99018.71
2018-06-09T17:27:24.763Z,99023.86
2018-06-09T17:29:54.174Z,99024.33
2018-06-09T17:32:22.839Z,99031.64
2018-06-09T17:34:51.546Z,99033.11
2018-06-09T17:37:20.756Z,99040.67
2018-06-09T17:39:49.742Z,99036.77
2018-06-09T17:42:18.344Z,99042.70
2018-06-09T17:44:46.974Z,99047.25
2018-06-09T17:47:15.570Z,99046.05
2018-06-09T17:49:44.217Z,99043.34
2018-06-09T17:52:12.861Z,99041.02
2018-06-09T17:54:41.573Z,99032.14
2018-06-09T17:57:10.315Z,99032.56
2018-06-09T17:59:38.941Z,99026.17
2018-06-09T18:02:07.609Z,99028.62
2018-06-09T18:04:36.268Z,99025.73
2018-06-09T18:07:05.026Z,99026.95
2018-06-09T18:09:33.685Z,99020.58
2018-06-09T18:12:02.366Z,99020.45
2018-06-09T18:14:37.617Z,99017.05
2018-06-09T18:17:06.711Z,99016.80
2018-06-09T18:19:35.326Z,99017.00
2018-06-09T18:22:03.970Z,99014.58
2018-06-09T18:24:32.640Z,99010.45
2018-06-09T18:27:01.245Z,99024.30
2018-06-09T18:29:29.884Z,99018.95
2018-06-09T18:31:58.491Z,99023.45
2018-06-09T18:34:27.138Z,99019.63
2018-06-09T18:36:55.798Z,99027.22
2018-06-09T18:39:24.414Z,99026.66
2018-06-09T18:41:52.990Z,99034.11
2018-06-09T18:44:21.649Z,99032.91
2018-06-09T18:46:50.293Z,99036.27
2018-06-09T18:49:18.939Z,99042.42
2018-06-09T18:51:47.622Z,99038.13
2018-06-09T18:54:16.226Z,99047.81
2018-06-09T18:56:44.895Z,99043.72
2018-06-09T18:59:13.573Z,99049.02
2018-06-09T19:01:42.205Z,99045.47
2018-06-09T19:04:10.802Z,99048.34
2018-06-09T19:06:39.447Z,99046.58
2018-06-09T19:09:09.045Z,99050.39
2018-06-09T19:11:37.658Z,99057.63
2018-06-09T19:14:06.666Z,99053.84
2018-06-09T19:16:35.894Z,99050.88
2018-06-09T19:19:04.904Z,99055.64
2018-06-09T19:21:33.590Z,99055.18
2018-06-09T19:24:02.228Z,99054.45
2018-06-09T19:26:30.893Z,99053.50
2018-06-09T19:28:59.505Z,99054.67
2018-06-09T19:31:28.222Z,99066.61
2018-06-09T19:33:56.846Z,99069.81
2018-06-09T19:36:26.900Z,99075.38
2018-06-09T19:38:55.534Z,99075.64
2018-06-09T19:41:24.150Z,99082.27
2018-06-09T19:43:52.791Z,99090.58
2018-06-09T19:46:21.400Z,99096.38
2018-06-09T19:48:50.018Z,99103.36
2018-06-09T19:51:18.630Z,99096.59
2018-06-09T19:53:47.286Z,99101.69
2018-06-09T19:56:16.645Z,99100.02
2018-06-09T19:58:45.812Z,99097.73
2018-06-09T20:01:14.542Z,99096.61
2018-06-09T20:03:43.194Z,99094.40
2018-06-09T20:06:12.551Z,99092.05
2018-06-09T20:08:44.065Z,99095.63
2018-06-09T20:11:12.832Z,99098.66
2018-06-09T20:13:47.624Z,99095.86
2018-06-09T20:16:16.446Z,99104.94
2018-06-09T20:18:45.063Z,99101.46
2018-06-09T20:21:14.416Z,99102.72
2018-06-09T20:23:43.418Z,99103.02
2018-06-09T20:26:14.364Z,99098.52
2018-06-09T20:28:43.256Z,99101.39
2018-06-09T20:31:11.939Z,99101.81
2018-06-09T20:33:41.062Z,99105.42
2018-06-09T20:36:12.801Z,99102.22
2018-06-09T20:38:42.063Z,99108.55
2018-06-09T20:41:11.200Z,99106.28
2018-06-09T20:43:40.007Z,99113.45
2018-06-09T20:46:08.706Z,99114.01
2018-06-09T20:48:38.579Z,99115.31
2018-06-09T20:51:07.325Z,99115.05
2018-06-09T20:53:36.019Z,99107.50
2018-06-09T20:56:04.687Z,99098.76
2018-06-09T20:58:39.656Z,99106.89
2018-06-09T21:01:08.350Z,99104.58
2018-06-09T21:03:37.170Z,99111.27
2018-06-09T21:06:07.408Z,99109.76
2018-06-09T21:08:42.735Z,99100.78
2018-06-09T21:11:11.851Z,99098.34
2018-06-09T21:13:40.558Z,99105.85
2018-06-09T21:16:09.245Z,99098.53
2018-06-09T21:18:38.185Z,99100.16
2018-06-09T21:21:06.939Z,99091.83
2018-06-09T21:23:35.870Z,99095.10
2018-06-09T21:26:10.717Z,99095.22
2018-06-09T21:28:45.824Z,99096.61
2018-06-09T21:31:18.669Z,99094.20
2018-06-09T21:34:03.441Z,99090.16
2018-06-09T21:36:37.080Z,99085.95
2018-06-09T21:39:13.699Z,99084.91
2018-06-09T21:41:45.177Z,99087.86
2018-06-09T21:44:15.170Z,99078.28
2018-06-09T21:46:50.043Z,99075.62
2018-06-09T21:49:19.005Z,99071.67
2018-06-09T21:51:47.602Z,99074.59
2018-06-09T21:54:16.215Z,99073.13
2018-06-09T21:56:44.864Z,99074.83
2018-06-09T21:59:13.519Z,99074.57
2018-06-09T22:01:42.269Z,99077.34
2018-06-09T22:04:10.915Z,99071.09
2018-06-09T22:06:39.597Z,99059.80
2018-06-09T22:09:08.296Z,99057.59
2018-06-09T22:11:36.929Z,99053.69
2018-06-09T22:14:05.998Z,99053.80
2018-06-09T22:16:35.061Z,99047.50
2018-06-09T22:19:03.683Z,99050.73
2018-06-09T22:21:32.328Z,99047.06
2018-06-09T22:24:01.059Z,99043.08
2018-06-09T22:26:29.837Z,99037.47
2018-06-09T22:28:58.486Z,99041.40
2018-06-09T22:31:27.327Z,99041.05
2018-06-09T22:33:55.995Z,99035.79
2018-06-09T22:36:24.867Z,99042.41
2018-06-09T22:38:53.514Z,99039.69
2018-06-09T22:41:22.137Z,99036.11
2018-06-09T22:43:50.843Z,99034.63
2018-06-09T22:46:22.375Z,99038.09
2018-06-09T22:48:51.001Z,99036.27
2018-06-09T22:51:19.618Z,99032.31
2018-06-09T22:53:48.258Z,99034.00
2018-06-09T22:56:16.862Z,99031.80
2018-06-09T22:58:45.493Z,99041.30
2018-06-09T23:01:14.115Z,99036.02
2018-06-09T23:03:42.729Z,99035.50
2018-06-09T23:06:11.423Z,99034.50
2018-06-09T23:08:40.367Z,99033.40
2018-06-09T23:11:09.045Z,99029.89
2018-06-09T23:13:37.688Z,99023.96
2018-06-09T23:16:06.444Z,99025.42
2018-06-09T23:18:35.164Z,99024.78
2018-06-09T23:21:03.891Z,99024.13
2018-06-09T23:23:32.527Z,99021.53
2018-06-09T23:26:01.151Z,99014.39
2018-06-09T23:28:29.786Z,99009.50
2018-06-09T23:30:58.494Z,99014.88
2018-06-09T23:33:27.137Z,99018.89
2018-06-09T23:35:55.819Z,99017.59
2018-06-09T23:38:24.404Z,99022.14
2018-06-09T23:40:53.091Z,99028.91
2018-06-09T23:43:21.771Z,99029.20
2018-06-09T23:45:50.411Z,99020.88
2018-06-09T23:48:19.145Z,99025.87
2018-06-09T23:50:47.826Z,99018.66
2018-06-09T23:53:16.423Z,99019.66
2018-06-09T23:55:45.048Z,99013.27
2018-06-09T23:58:13.666Z,99011.89
